Time;durP1;ratioP1;P1;durP2;ratioP2;P2;SDS_P1;SDS_P2;PMS_P1;PMS_P2;Temp;Humidity;BMP_temperature;BMP_pressure;BME280_temperature;BME280_humidity;BME280_pressure;Samples;Min_cycle;Max_cycle;Signal;HPM_P1;HPM_P2
2022/01/07 00:00:16;;;;;;;14.45;7.28;;;;;;;0.88;100.00;100987.72;834023;23;1121;-88
2022/01/07 00:00:39;;;;;;;15.75;6.88;;;;;;;0.84;100.00;100945.53;830290;23;1272;-86
2022/01/07 00:01:05;;;;;;;18.00;7.43;;;;;;;0.87;100.00;100999.72;830214;23;4247;-87
2022/01/07 00:01:31;;;;;;;13.80;7.00;;;;;;;0.81;100.00;100974.59;839538;23;1222;-87
2022/01/07 00:01:52;;;;;;;14.85;6.65;;;;;;;1.10;100.00;100966.28;839865;23;915;-85
2022/01/07 00:02:12;;;;;;;14.70;6.43;;;;;;;1.18;100.00;100949.44;839850;23;954;-87
2022/01/07 00:02:35;;;;;;;13.97;6.20;;;;;;;1.16;100.00;100967.41;834722;23;1305;-87
2022/01/07 00:03:06;;;;;;;14.65;6.78;;;;;;;1.21;100.00;100946.97;834737;23;1347;-86
2022/01/07 00:03:29;;;;;;;14.90;6.53;;;;;;;1.14;100.00;100951.00;835678;23;998;-87
2022/01/07 00:03:53;;;;;;;14.35;6.50;;;;;;;1.15;100.00;100954.44;831570;23;916;-87
2022/01/07 00:04:14;;;;;;;12.40;6.40;;;;;;;1.08;100.00;100958.50;832528;23;4234;-87
2022/01/07 00:04:37;;;;;;;13.27;6.70;;;;;;;1.04;100.00;100991.78;837975;23;1263;-87
2022/01/07 00:05:01;;;;;;;16.25;7.13;;;;;;;1.00;100.00;100945.31;834806;23;1296;-87
2022/01/07 00:05:30;;;;;;;17.60;6.35;;;;;;;1.15;100.00;100957.91;834904;23;1248;-87
2022/01/07 00:05:54;;;;;;;14.30;6.57;;;;;;;1.36;100.00;100950.13;827625;23;990;-85
2022/01/07 00:06:19;;;;;;;12.10;6.03;;;;;;;1.38;100.00;101004.25;826823;23;1228;-87
2022/01/07 00:06:39;;;;;;;13.40;6.53;;;;;;;1.30;100.00;100993.69;827597;23;1945;-86
2022/01/07 00:07:02;;;;;;;14.67;6.87;;;;;;;1.28;100.00;100969.56;815679;23;4246;-85
2022/01/07 00:07:23;;;;;;;13.85;6.35;;;;;;;1.20;100.00;100952.94;830029;23;1424;-86
2022/01/07 00:07:45;;;;;;;13.03;6.17;;;;;;;1.25;100.00;100945.41;822821;23;1196;-85
2022/01/07 00:08:05;;;;;;;13.68;6.07;;;;;;;1.26;100.00;100948.03;834575;23;1337;-85
2022/01/07 00:08:32;;;;;;;13.63;6.53;;;;;;;1.19;100.00;100976.91;835051;23;1189;-86
2022/01/07 00:08:53;;;;;;;14.45;7.00;;;;;;;1.20;100.00;100942.63;830251;23;1316;-86
2022/01/07 00:09:13;;;;;;;14.88;6.65;;;;;;;1.23;100.00;100960.75;832883;23;999;-86
2022/01/07 00:09:40;;;;;;;15.18;6.07;;;;;;;1.26;100.00;100960.91;830237;23;1310;-86
2022/01/07 00:10:08;;;;;;;15.25;6.70;;;;;;;1.23;100.00;100954.75;828731;23;4237;-86
2022/01/07 00:10:29;;;;;;;14.07;6.35;;;;;;;1.21;100.00;100936.66;826449;23;1233;-87
2022/01/07 00:10:50;;;;;;;13.32;6.50;;;;;;;1.25;100.00;100933.38;830300;23;1307;-86
2022/01/07 00:11:10;;;;;;;12.43;5.93;;;;;;;1.32;100.00;100935.34;826398;23;1238;-86
2022/01/07 00:11:31;;;;;;;14.40;6.27;;;;;;;1.27;100.00;100949.75;830962;23;1192;-87
2022/01/07 00:11:51;;;;;;;13.65;6.20;;;;;;;1.28;100.00;100942.94;831003;23;1371;-86
2022/01/07 00:12:28;;;;;;;15.55;6.22;;;;;;;1.18;100.00;100932.28;829302;23;1392;-86
2022/01/07 00:12:55;;;;;;;15.93;6.30;;;;;;;1.11;100.00;100958.63;834807;23;1324;-86
2022/01/07 00:13:16;;;;;;;16.52;6.88;;;;;;;1.08;100.00;100966.22;833972;23;4257;-86
2022/01/07 00:13:39;;;;;;;15.55;6.05;;;;;;;1.05;100.00;100978.09;826989;23;1294;-87
2022/01/07 00:13:59;;;;;;;14.77;6.30;;;;;;;1.10;100.00;100966.28;830877;23;1418;-87
2022/01/07 00:14:20;;;;;;;13.40;6.40;;;;;;;1.04;100.00;100955.72;839125;23;1190;-87
2022/01/07 00:14:48;;;;;;;13.15;6.15;;;;;;;1.19;100.00;100931.47;830102;23;1189;-87
2022/01/07 00:15:13;;;;;;;13.32;6.05;;;;;;;1.25;100.00;100961.72;832307;23;992;-86
2022/01/07 00:15:45;;;;;;;12.68;6.03;;;;;;;1.29;100.00;100958.44;835892;23;876;-86
2022/01/07 00:16:10;;;;;;;13.45;6.35;;;;;;;1.26;100.00;100931.66;817093;23;4371;-86
2022/01/07 00:16:31;;;;;;;12.15;5.63;;;;;;;1.27;100.00;100962.63;838442;23;1460;-85
2022/01/07 00:16:59;;;;;;;12.52;5.80;;;;;;;1.26;100.00;100957.44;831491;23;1304;-86
2022/01/07 00:17:22;;;;;;;11.82;6.15;;;;;;;1.35;100.00;100932.88;826921;23;1316;-85
2022/01/07 00:17:44;;;;;;;11.57;5.90;;;;;;;1.36;100.00;100926.06;826277;23;1163;-86
2022/01/07 00:18:06;;;;;;;12.45;6.18;;;;;;;1.41;100.00;100963.16;833457;23;1021;-86
2022/01/07 00:18:26;;;;;;;12.90;6.13;;;;;;;1.43;100.00;100925.47;830418;23;1297;-85
2022/01/07 00:18:47;;;;;;;12.53;6.03;;;;;;;1.47;100.00;100926.47;834252;23;1227;-86
2022/01/07 00:19:08;;;;;;;13.32;6.07;;;;;;;1.42;100.00;100925.41;839333;23;4237;-86
2022/01/07 00:19:29;;;;;;;12.48;6.00;;;;;;;1.33;100.00;100960.31;831628;23;1327;-86
2022/01/07 00:19:49;;;;;;;12.27;5.95;;;;;;;1.31;100.00;100925.88;831327;23;1174;-84
2022/01/07 00:20:12;;;;;;;13.70;6.00;;;;;;;1.25;100.00;100948.84;832767;23;960;-85
2022/01/07 00:20:37;;;;;;;12.85;6.20;;;;;;;1.24;100.00;100938.47;836681;23;928;-86
2022/01/07 00:21:05;;;;;;;14.52;6.30;;;;;;;1.18;100.00;100939.13;838745;23;1280;-86
2022/01/07 00:21:31;;;;;;;16.10;6.60;;;;;;;1.14;100.00;100957.84;839205;23;1272;-86
2022/01/07 00:21:52;;;;;;;15.20;6.20;;;;;;;1.08;100.00;100918.97;830929;23;1347;-86
2022/01/07 00:22:15;;;;;;;18.02;7.05;;;;;;;1.10;100.00;100920.81;831084;23;4250;-86
2022/01/07 00:22:38;;;;;;;16.10;6.90;;;;;;;1.13;100.00;100920.03;827260;23;1165;-86
2022/01/07 00:22:58;;;;;;;13.65;5.95;;;;;;;1.12;100.00;100959.47;824962;24;825;-85
2022/01/07 00:23:20;;;;;;;15.17;5.93;;;;;;;1.09;100.00;100944.78;826745;23;1298;-85
2022/01/07 00:23:41;;;;;;;14.05;6.13;;;;;;;1.05;100.00;100942.03;822926;23;1330;-86
2022/01/07 00:24:04;;;;;;;14.38;6.20;;;;;;;1.04;100.00;100946.34;827443;23;1118;-87
2022/01/07 00:24:25;;;;;;;11.73;5.90;;;;;;;1.04;100.00;100920.59;826664;23;1325;-86
2022/01/07 00:24:45;;;;;;;13.27;6.13;;;;;;;1.02;100.00;100919.63;826837;23;1161;-86
2022/01/07 00:25:07;;;;;;;13.13;6.10;;;;;;;1.02;100.00;100937.66;834367;23;4241;-86
2022/01/07 00:25:30;;;;;;;13.57;6.13;;;;;;;0.96;100.00;100938.28;834995;23;1208;-85
2022/01/07 00:25:51;;;;;;;12.52;6.07;;;;;;;1.13;100.00;100925.19;843349;23;1271;-86
2022/01/07 00:26:12;;;;;;;13.82;6.38;;;;;;;1.17;100.00;100951.09;838863;23;1240;-87
2022/01/07 00:26:33;;;;;;;15.15;6.90;;;;;;;1.14;100.00;100932.09;841669;23;1893;-86
2022/01/07 00:26:53;;;;;;;15.57;6.20;;;;;;;1.09;100.00;100928.47;834889;23;1412;-86
2022/01/07 00:27:16;;;;;;;14.43;6.30;;;;;;;1.06;100.00;100941.22;835609;23;1176;-86
2022/01/07 00:27:38;;;;;;;12.30;6.03;;;;;;;1.20;100.00;100919.44;835480;23;1409;-85
2022/01/07 00:27:59;;;;;;;12.68;6.13;;;;;;;1.17;100.00;100947.66;832027;23;4262;-85
2022/01/07 00:28:22;;;;;;;15.63;6.55;;;;;;;1.22;100.00;100943.56;835133;23;1114;-86
2022/01/07 00:28:43;;;;;;;13.80;5.93;;;;;;;1.32;100.00;100917.31;838480;23;1304;-85
2022/01/07 00:29:06;;;;;;;13.18;5.53;;;;;;;1.32;100.00;100945.66;835168;23;1206;-85
2022/01/07 00:29:27;;;;;;;13.32;5.82;;;;;;;1.24;100.00;100923.88;838821;23;1273;-86
2022/01/07 00:29:48;;;;;;;14.17;6.27;;;;;;;1.17;100.00;100932.22;844784;23;753;-86
2022/01/07 00:30:13;;;;;;;13.63;6.25;;;;;;;1.12;100.00;100931.16;834380;23;1339;-86
2022/01/07 00:30:33;;;;;;;13.20;5.86;;;;;;;1.25;100.00;100925.66;841006;23;1007;-86
2022/01/07 00:30:57;;;;;;;11.77;6.10;;;;;;;1.18;100.00;100933.97;838858;23;1308;-87
2022/01/07 00:31:21;;;;;;;14.02;6.05;;;;;;;1.13;100.00;100902.00;833451;23;4216;-87
2022/01/07 00:31:44;;;;;;;13.90;6.10;;;;;;;1.09;100.00;100934.47;838162;23;1370;-87
2022/01/07 00:32:05;;;;;;;12.80;5.95;;;;;;;1.05;100.00;100903.44;834510;23;1275;-86
2022/01/07 00:32:26;;;;;;;12.38;5.82;;;;;;;1.05;100.00;100936.91;830597;23;1298;-86
2022/01/07 00:32:50;;;;;;;13.25;5.82;;;;;;;1.05;100.00;100936.91;830944;23;1110;-87
2022/01/07 00:33:11;;;;;;;13.02;5.90;;;;;;;1.01;100.00;100938.47;833986;23;1359;-86
2022/01/07 00:33:31;;;;;;;11.80;5.95;;;;;;;1.15;100.00;100918.38;830787;23;1166;-86
2022/01/07 00:33:52;;;;;;;13.35;6.20;;;;;;;1.14;100.00;100916.66;821862;23;1167;-86
2022/01/07 00:34:12;;;;;;;11.97;5.73;;;;;;;1.18;100.00;100929.69;828632;23;4199;-86
2022/01/07 00:34:33;;;;;;;15.07;5.85;;;;;;;1.20;100.00;100896.25;835064;23;1540;-86
2022/01/07 00:35:02;;;;;;;11.65;5.70;;;;;;;1.23;100.00;100901.53;835043;23;1441;-86
2022/01/07 00:35:22;;;;;;;10.02;5.40;;;;;;;1.25;100.00;100910.19;829982;23;1285;-87
2022/01/07 00:35:43;;;;;;;9.33;5.23;;;;;;;1.45;100.00;100892.88;822647;23;1236;-86
2022/01/07 00:36:05;;;;;;;12.02;5.45;;;;;;;1.53;100.00;100908.63;824810;23;925;-86
2022/01/07 00:36:25;;;;;;;15.68;6.02;;;;;;;1.58;100.00;100890.75;826074;23;1192;-85
2022/01/07 00:36:46;;;;;;;11.57;5.40;;;;;;;1.56;100.00;100895.84;834291;23;1217;-85
2022/01/07 00:37:06;;;;;;;10.98;5.38;;;;;;;1.56;99.97;100893.28;828732;23;4211;-86
2022/01/07 00:37:27;;;;;;;13.27;5.20;;;;;;;1.47;100.00;100922.16;834602;23;1340;-86
2022/01/07 00:37:49;;;;;;;11.43;5.50;;;;;;;1.40;100.00;100904.75;831949;23;1075;-86
2022/01/07 00:38:09;;;;;;;11.23;5.72;;;;;;;1.34;100.00;100883.91;834750;23;1200;-86
2022/01/07 00:38:32;;;;;;;14.05;6.03;;;;;;;1.32;100.00;100882.97;842427;23;1106;-86
2022/01/07 00:38:55;;;;;;;15.32;6.00;;;;;;;1.38;100.00;100920.97;838526;23;1440;-86
2022/01/07 00:39:16;;;;;;;12.93;5.95;;;;;;;1.32;100.00;100931.91;839228;23;1272;-86
2022/01/07 00:39:37;;;;;;;12.38;5.78;;;;;;;1.32;100.00;100890.69;831962;23;1020;-86
2022/01/07 00:39:57;;;;;;;13.87;5.50;;;;;;;1.30;100.00;100926.72;829806;23;1148;-86
2022/01/07 00:40:21;;;;;;;12.70;5.50;;;;;;;1.43;100.00;100881.66;835007;23;4211;-85
2022/01/07 00:40:41;;;;;;;11.95;5.47;;;;;;;1.44;100.00;100921.16;826794;23;1217;-86
2022/01/07 00:41:05;;;;;;;12.40;5.55;;;;;;;1.57;100.00;100936.25;830381;23;1384;-85
2022/01/07 00:41:26;;;;;;;14.73;5.90;;;;;;;1.58;99.76;100883.91;822069;24;1116;-87
2022/01/07 00:41:46;;;;;;;12.82;5.70;;;;;;;1.59;99.51;100879.63;823854;23;814;-86
2022/01/07 00:42:08;;;;;;;10.90;5.47;;;;;;;1.50;100.00;100896.50;828070;23;1253;-86
2022/01/07 00:42:33;;;;;;;12.80;5.85;;;;;;;1.46;100.00;100883.47;827123;23;914;-85
2022/01/07 00:42:54;;;;;;;12.66;5.68;;;;;;;1.48;100.00;100897.28;828341;23;1310;-86
2022/01/07 00:43:15;;;;;;;13.35;6.30;;;;;;;1.46;100.00;100897.22;827257;23;4224;-86
2022/01/07 00:43:38;;;;;;;11.27;5.72;;;;;;;1.40;100.00;100880.66;829668;23;1422;-86
2022/01/07 00:43:58;;;;;;;10.57;5.30;;;;;;;1.33;100.00;100877.88;830764;23;1303;-85
2022/01/07 00:44:19;;;;;;;13.77;5.50;;;;;;;1.38;100.00;100908.06;831225;23;1273;-86
2022/01/07 00:44:42;;;;;;;11.88;5.60;;;;;;;1.42;100.00;100861.88;834492;23;1285;-86
2022/01/07 00:45:04;;;;;;;10.85;5.72;;;;;;;1.39;100.00;100910.72;835616;23;832;-86
2022/01/07 00:45:25;;;;;;;13.00;5.60;;;;;;;1.34;100.00;100877.06;830395;23;1263;-85
2022/01/07 00:45:51;;;;;;;12.18;5.60;;;;;;;1.30;100.00;100877.78;829933;23;1499;-87
2022/01/07 00:46:15;;;;;;;11.45;5.30;;;;;;;1.31;100.00;100879.50;825413;23;4215;-86
2022/01/07 00:46:35;;;;;;;11.57;5.47;;;;;;;1.26;100.00;100911.97;829754;23;1909;-86
2022/01/07 00:47:01;;;;;;;9.98;5.50;;;;;;;1.26;100.00;100911.06;833841;23;1550;-86
2022/01/07 00:47:24;;;;;;;10.55;5.22;;;;;;;1.26;100.00;100906.81;829656;23;1231;-85
2022/01/07 00:47:45;;;;;;;12.63;5.30;;;;;;;1.25;100.00;100863.84;829394;23;1215;-85
2022/01/07 00:48:06;;;;;;;12.68;5.30;;;;;;;1.22;100.00;100868.88;832145;23;987;-86
2022/01/07 00:48:26;;;;;;;13.50;5.47;;;;;;;1.18;100.00;100867.88;826764;23;1300;-86
2022/01/07 00:48:47;;;;;;;13.07;5.43;;;;;;;1.19;100.00;100885.09;825803;23;1246;-86
2022/01/07 00:49:08;;;;;;;13.80;6.03;;;;;;;1.15;100.00;100870.34;833085;23;4230;-86
2022/01/07 00:49:28;;;;;;;13.00;6.78;;;;;;;1.14;100.00;100890.91;833171;23;1168;-86
2022/01/07 00:49:49;;;;;;;13.20;6.33;;;;;;;1.12;100.00;100897.69;834251;23;1113;-86
2022/01/07 00:50:11;;;;;;;13.82;5.75;;;;;;;1.07;100.00;100891.50;829669;23;1259;-85
2022/01/07 00:50:32;;;;;;;12.23;5.45;;;;;;;1.30;100.00;100900.97;837715;23;1259;-86
2022/01/07 00:50:53;;;;;;;13.18;5.40;;;;;;;1.36;100.00;100908.91;837465;23;1232;-86
2022/01/07 00:51:14;;;;;;;13.77;5.82;;;;;;;1.34;100.00;100892.53;833467;23;1328;-86
2022/01/07 00:51:34;;;;;;;13.55;5.80;;;;;;;1.33;100.00;100901.06;834225;23;1257;-87
2022/01/07 00:51:56;;;;;;;13.03;5.60;;;;;;;1.32;100.00;100867.53;825863;23;1107;-85
2022/01/07 00:52:17;;;;;;;12.57;5.32;;;;;;;1.38;100.00;100869.44;832764;23;4175;-85
2022/01/07 00:52:38;;;;;;;12.27;5.40;;;;;;;1.36;100.00;100849.63;830040;23;1256;-86
2022/01/07 00:52:59;;;;;;;11.15;5.00;;;;;;;1.39;100.00;100872.06;834235;23;1252;-86
2022/01/07 00:53:22;;;;;;;12.18;5.15;;;;;;;1.32;100.00;100894.16;830020;23;1241;-86
2022/01/07 00:53:43;;;;;;;13.52;5.07;;;;;;;1.33;100.00;100885.59;829808;23;1260;-86
2022/01/07 00:54:04;;;;;;;10.63;5.00;;;;;;;1.38;100.00;100880.59;826182;23;1174;-86
2022/01/07 00:54:28;;;;;;;12.50;5.10;;;;;;;1.36;100.00;100872.81;827245;23;908;-86
2022/01/07 00:54:49;;;;;;;10.95;5.13;;;;;;;1.43;100.00;100852.47;826051;23;1414;-86
2022/01/07 00:55:10;;;;;;;11.50;4.73;;;;;;;1.42;100.00;100861.00;825137;23;4236;-86
2022/01/07 00:55:31;;;;;;;10.20;4.90;;;;;;;1.40;100.00;100865.19;833977;23;1482;-86
2022/01/07 00:55:52;;;;;;;10.95;5.18;;;;;;;1.40;100.00;100872.94;826750;23;1245;-84
2022/01/07 00:56:13;;;;;;;12.05;5.28;;;;;;;1.34;100.00;100884.78;834207;23;1011;-86
2022/01/07 00:56:33;;;;;;;10.32;5.05;;;;;;;1.28;100.00;100853.63;837972;23;1051;-84
2022/01/07 00:56:57;;;;;;;10.97;5.27;;;;;;;1.30;100.00;100890.66;826391;23;1247;-85
2022/01/07 00:57:17;;;;;;;12.52;5.20;;;;;;;1.28;100.00;100876.81;829924;23;1224;-85
2022/01/07 00:57:43;;;;;;;11.47;5.17;;;;;;;1.23;100.00;100904.09;822227;23;1277;-85
2022/01/07 00:58:04;;;;;;;12.15;5.07;;;;;;;1.24;100.00;100871.50;829690;23;4245;-86
2022/01/07 00:58:25;;;;;;;14.27;5.50;;;;;;;1.29;100.00;100850.25;830085;23;1294;-86
2022/01/07 00:58:45;;;;;;;11.85;5.53;;;;;;;1.32;100.00;100891.56;829389;23;1466;-86
2022/01/07 00:59:08;;;;;;;12.60;5.30;;;;;;;1.38;100.00;100869.44;836225;23;801;-85
2022/01/07 00:59:28;;;;;;;12.95;5.05;;;;;;;1.45;100.00;100892.88;837521;23;1189;-85
2022/01/07 00:59:49;;;;;;;13.75;5.10;;;;;;;1.49;99.59;100861.25;831507;23;971;-86
2022/01/07 01:00:13;;;;;;;13.18;5.07;;;;;;;1.56;99.67;100876.94;838378;23;1243;-87
2022/01/07 01:00:34;;;;;;;11.88;5.07;;;;;;;1.50;99.51;100839.81;833663;23;1412;-86
2022/01/07 01:00:54;;;;;;;11.15;4.88;;;;;;;1.51;100.00;100840.72;834155;23;1129;-86
2022/01/07 01:01:15;;;;;;;13.37;5.10;;;;;;;1.48;100.00;100851.78;836601;23;4845;-86
2022/01/07 01:01:36;;;;;;;11.43;4.88;;;;;;;1.40;100.00;100854.91;833810;23;1292;-86
2022/01/07 01:01:57;;;;;;;11.77;5.00;;;;;;;1.45;100.00;100843.94;834431;23;1388;-86
2022/01/07 01:02:18;;;;;;;12.25;5.10;;;;;;;1.46;100.00;100860.28;821940;24;1103;-85
2022/01/07 01:02:39;;;;;;;11.32;5.03;;;;;;;1.47;100.00;100872.34;831172;23;829;-85
2022/01/07 01:03:02;;;;;;;10.68;4.90;;;;;;;1.44;100.00;100846.47;834295;23;1292;-87
2022/01/07 01:03:22;;;;;;;10.43;4.93;;;;;;;1.46;100.00;100844.81;830980;23;1307;-85
2022/01/07 01:03:43;;;;;;;13.20;5.20;;;;;;;1.41;100.00;100874.69;834234;23;1220;-85
2022/01/07 01:04:04;;;;;;;12.87;4.97;;;;;;;1.39;100.00;100855.75;833883;23;4222;-85
2022/01/07 01:04:24;;;;;;;11.63;5.00;;;;;;;1.41;100.00;100848.94;826324;23;1509;-86
2022/01/07 01:04:45;;;;;;;12.50;4.95;;;;;;;1.56;100.00;100858.91;828689;23;825;-86
2022/01/07 01:05:08;;;;;;;10.88;4.82;;;;;;;1.52;99.55;100843.34;837565;23;1153;-86
2022/01/07 01:05:29;;;;;;;11.90;5.18;;;;;;;1.53;99.84;100847.66;837515;23;1243;-85
2022/01/07 01:05:49;;;;;;;12.13;4.85;;;;;;;1.57;99.59;100851.22;838801;23;1185;-86
2022/01/07 01:06:13;;;;;;;11.63;5.07;;;;;;;1.49;99.83;100847.50;835031;23;1119;-86
2022/01/07 01:06:33;;;;;;;10.43;5.32;;;;;;;1.42;100.00;100855.84;835292;23;1929;-86
2022/01/07 01:06:56;;;;;;;11.02;5.00;;;;;;;1.38;100.00;100836.81;829501;23;1346;-86
2022/01/07 01:07:17;;;;;;;11.32;5.10;;;;;;;1.34;100.00;100858.13;829656;23;4345;-85
2022/01/07 01:07:38;;;;;;;12.63;5.53;;;;;;;1.43;100.00;100857.59;829427;23;1177;-85
2022/01/07 01:07:59;;;;;;;15.85;5.70;;;;;;;1.47;99.48;100872.34;833517;23;1232;-85
2022/01/07 01:08:20;;;;;;;11.50;5.40;;;;;;;1.54;99.12;100871.75;835198;23;872;-86
2022/01/07 01:08:40;;;;;;;10.70;5.13;;;;;;;1.46;99.70;100873.16;838387;23;1085;-86
2022/01/07 01:09:01;;;;;;;12.40;5.20;;;;;;;1.46;100.00;100842.25;838350;23;1192;-86
2022/01/07 01:09:21;;;;;;;11.77;5.22;;;;;;;1.41;100.00;100839.50;834249;23;1323;-86
2022/01/07 01:09:45;;;;;;;10.07;4.97;;;;;;;1.36;100.00;100857.38;829905;23;1243;-86
2022/01/07 01:10:07;;;;;;;11.68;4.93;;;;;;;1.32;100.00;100870.97;818323;23;4266;-86
2022/01/07 01:10:27;;;;;;;11.15;5.10;;;;;;;1.43;100.00;100852.47;830662;23;1165;-85
2022/01/07 01:10:48;;;;;;;10.55;5.20;;;;;;;1.50;100.00;100875.03;831548;23;885;-85
2022/01/07 01:11:08;;;;;;;10.07;4.90;;;;;;;1.56;99.21;100849.47;832070;23;755;-85
2022/01/07 01:11:29;;;;;;;12.15;5.10;;;;;;;1.65;98.81;100834.34;834794;23;1129;-85
2022/01/07 01:11:52;;;;;;;11.57;4.93;;;;;;;1.63;99.31;100837.66;833682;23;1180;-86
2022/01/07 01:12:13;;;;;;;10.70;5.10;;;;;;;1.63;99.55;100877.19;831674;23;805;-85
2022/01/07 01:12:41;;;;;;;12.23;5.15;;;;;;;1.61;98.60;100870.25;833906;23;1395;-85
2022/01/07 01:13:01;;;;;;;11.07;4.80;;;;;;;1.52;99.49;100833.03;829203;23;4243;-86
2022/01/07 01:13:22;;;;;;;12.07;5.10;;;;;;;1.43;100.00;100871.34;825820;23;1197;-86
2022/01/07 01:13:43;;;;;;;10.67;5.10;;;;;;;1.39;100.00;100833.41;827401;23;975;-86
2022/01/07 01:14:04;;;;;;;12.13;4.93;;;;;;;1.36;100.00;100862.53;833394;23;1173;-86
2022/01/07 01:14:25;;;;;;;13.50;5.32;;;;;;;1.29;100.00;100834.78;835841;23;931;-86
2022/01/07 01:14:45;;;;;;;13.10;5.53;;;;;;;1.24;100.00;100856.94;835641;23;1050;-85
2022/01/07 01:15:08;;;;;;;12.73;5.15;;;;;;;1.26;100.00;100880.16;834255;23;1433;-85
2022/01/07 01:15:29;;;;;;;13.93;5.22;;;;;;;1.27;100.00;100875.06;836075;23;987;-86
2022/01/07 01:15:52;;;;;;;13.60;5.40;;;;;;;1.23;100.00;100844.00;834180;23;1332;-86
2022/01/07 01:16:13;;;;;;;11.55;5.40;;;;;;;1.26;100.00;100857.88;829116;23;4249;-86
2022/01/07 01:16:35;;;;;;;10.83;5.20;;;;;;;1.26;100.00;100838.94;830232;23;1256;-86
2022/01/07 01:16:58;;;;;;;9.95;4.97;;;;;;;1.22;100.00;100848.28;826630;23;813;-85
2022/01/07 01:17:18;;;;;;;10.70;4.75;;;;;;;1.29;100.00;100834.78;830214;23;1248;-86
2022/01/07 01:17:39;;;;;;;10.43;5.47;;;;;;;1.38;100.00;100853.97;831027;23;999;-86
2022/01/07 01:18:03;;;;;;;11.20;5.20;;;;;;;1.33;100.00;100875.31;822878;23;1474;-85
2022/01/07 01:18:23;;;;;;;10.85;5.47;;;;;;;1.30;100.00;100880.34;828231;23;1221;-85
2022/01/07 01:18:46;;;;;;;10.27;5.20;;;;;;;1.41;100.00;100839.50;828888;23;1059;-85
2022/01/07 01:19:07;;;;;;;11.70;5.00;;;;;;;1.36;100.00;100859.09;831818;23;4227;-86
2022/01/07 01:19:31;;;;;;;11.52;5.35;;;;;;;1.52;99.55;100857.91;833514;23;1339;-85
2022/01/07 01:19:51;;;;;;;11.82;5.25;;;;;;;1.61;98.58;100867.69;832072;23;928;-85
2022/01/07 01:20:12;;;;;;;11.98;4.95;;;;;;;1.57;98.83;100845.22;826150;23;1279;-85
2022/01/07 01:20:33;;;;;;;11.30;5.30;;;;;;;1.55;99.81;100847.69;829821;23;1432;-85
2022/01/07 01:20:53;;;;;;;11.30;5.20;;;;;;;1.58;99.32;100828.91;833512;23;1266;-86
2022/01/07 01:21:17;;;;;;;10.63;4.95;;;;;;;1.60;99.23;100841.03;835565;23;1028;-86
2022/01/07 01:21:37;;;;;;;10.83;4.90;;;;;;;1.54;98.87;100848.56;831282;23;1140;-85
2022/01/07 01:21:58;;;;;;;11.73;5.10;;;;;;;1.51;99.02;100845.88;836333;23;960;-85
2022/01/07 01:22:19;;;;;;;11.52;5.03;;;;;;;1.49;99.63;100870.69;829273;23;4206;-85
2022/01/07 01:22:40;;;;;;;12.40;5.25;;;;;;;1.43;100.00;100839.56;831538;23;1015;-85
2022/01/07 01:23:02;;;;;;;12.75;5.70;;;;;;;1.40;100.00;100832.59;830405;23;1416;-86
2022/01/07 01:23:23;;;;;;;13.67;5.40;;;;;;;1.40;100.00;100852.31;827655;23;932;-86
2022/01/07 01:23:45;;;;;;;10.27;5.10;;;;;;;1.45;100.00;100835.34;830679;23;1172;-85
2022/01/07 01:24:08;;;;;;;10.15;5.00;;;;;;;1.41;100.00;100828.31;827622;23;1257;-86
2022/01/07 01:24:29;;;;;;;12.05;5.10;;;;;;;1.38;100.00;100839.38;834766;23;1494;-85
2022/01/07 01:24:49;;;;;;;13.13;5.00;;;;;;;1.42;100.00;100845.53;838338;23;1189;-87
2022/01/07 01:25:10;;;;;;;12.07;5.30;;;;;;;1.44;100.00;100836.16;833924;23;4454;-86
2022/01/07 01:25:31;;;;;;;12.73;5.43;;;;;;;1.38;100.00;100861.72;834801;23;804;-85
2022/01/07 01:25:52;;;;;;;10.23;5.20;;;;;;;1.46;100.00;100837.09;833617;23;1159;-85
2022/01/07 01:26:13;;;;;;;11.85;4.97;;;;;;;1.56;98.98;100852.03;837671;23;1298;-85
2022/01/07 01:26:34;;;;;;;12.48;4.90;;;;;;;1.52;99.46;100837.28;834941;23;1862;-85
2022/01/07 01:26:54;;;;;;;12.87;5.27;;;;;;;1.47;99.54;100864.63;834597;23;1274;-85
2022/01/07 01:27:17;;;;;;;10.73;4.80;;;;;;;1.46;99.61;100837.97;827143;23;1129;-86
2022/01/07 01:27:40;;;;;;;10.15;5.00;;;;;;;1.38;99.82;100844.53;834471;23;1289;-85
2022/01/07 01:28:04;;;;;;;11.45;5.45;;;;;;;1.44;99.59;100867.06;834848;23;4431;-85
2022/01/07 01:28:24;;;;;;;11.77;4.90;;;;;;;1.52;99.23;100827.00;833460;23;1258;-85
2022/01/07 01:28:48;;;;;;;11.13;5.03;;;;;;;1.50;99.18;100821.78;840030;23;1100;-85
2022/01/07 01:29:09;;;;;;;11.50;5.40;;;;;;;1.62;98.20;100836.81;826719;23;1232;-86
2022/01/07 01:29:29;;;;;;;10.80;5.47;;;;;;;1.66;97.68;100835.19;829533;23;1130;-85
2022/01/07 01:29:50;;;;;;;11.18;5.20;;;;;;;1.61;98.60;100860.81;829402;23;1288;-85
2022/01/07 01:30:16;;;;;;;11.05;5.05;;;;;;;1.58;98.39;100852.09;835624;23;752;-85
2022/01/07 01:30:38;;;;;;;11.13;5.70;;;;;;;1.48;99.00;100856.94;830441;23;1209;-86
2022/01/07 01:30:58;;;;;;;10.55;5.25;;;;;;;1.49;99.26;100863.81;832861;23;4211;-85
2022/01/07 01:31:21;;;;;;;9.80;4.97;;;;;;;1.48;99.28;100830.28;834262;23;1207;-85
2022/01/07 01:31:42;;;;;;;11.43;5.18;;;;;;;1.40;99.85;100830.03;835499;23;935;-86
2022/01/07 01:32:03;;;;;;;12.27;5.30;;;;;;;1.38;100.00;100831.66;833370;23;1306;-85
2022/01/07 01:32:23;;;;;;;14.30;5.35;;;;;;;1.34;100.00;100828.13;833807;23;1242;-86
2022/01/07 01:32:46;;;;;;;12.43;5.50;;;;;;;1.33;100.00;100825.47;829904;23;1180;-86
2022/01/07 01:33:07;;;;;;;11.98;5.78;;;;;;;1.27;100.00;100833.84;837315;23;1301;-85
2022/01/07 01:33:27;;;;;;;11.10;5.25;;;;;;;1.36;100.00;100836.75;838082;23;1256;-85
2022/01/07 01:33:48;;;;;;;12.05;5.03;;;;;;;1.40;100.00;100860.06;830065;23;1511;-86
2022/01/07 01:34:09;;;;;;;12.57;5.38;;;;;;;1.50;99.24;100857.00;829128;23;4221;-86
2022/01/07 01:34:29;;;;;;;11.13;5.33;;;;;;;1.52;98.62;100827.88;839151;23;1240;-85
2022/01/07 01:34:52;;;;;;;11.50;5.55;;;;;;;1.53;98.64;100855.38;838001;23;1315;-84
2022/01/07 01:35:14;;;;;;;12.38;5.47;;;;;;;1.51;98.90;100820.09;837257;23;1301;-86
2022/01/07 01:35:37;;;;;;;11.35;5.10;;;;;;;1.54;98.97;100825.34;829631;23;1211;-86
2022/01/07 01:35:57;;;;;;;11.65;5.03;;;;;;;1.55;98.68;100862.28;818180;24;1326;-86
2022/01/07 01:36:20;;;;;;;14.00;5.30;;;;;;;1.53;99.54;100854.53;826302;23;1174;-85
2022/01/07 01:36:41;;;;;;;12.85;5.10;;;;;;;1.55;99.71;100862.28;830487;23;1262;-84
2022/01/07 01:37:02;;;;;;;11.27;4.95;;;;;;;1.58;98.74;100853.00;833658;23;4397;-86
2022/01/07 01:37:23;;;;;;;12.35;5.03;;;;;;;1.50;99.30;100860.44;829350;23;1435;-86
2022/01/07 01:37:45;;;;;;;11.73;5.00;;;;;;;1.50;99.43;100826.06;833988;23;1168;-86
2022/01/07 01:38:06;;;;;;;11.60;5.32;;;;;;;1.42;100.00;100846.41;833967;23;1337;-86
2022/01/07 01:38:30;;;;;;;10.54;5.58;;;;;;;1.42;100.00;100835.25;838833;23;1207;-87
2022/01/07 01:38:51;;;;;;;10.00;5.13;;;;;;;1.37;100.00;100847.94;842142;23;1383;-86
2022/01/07 01:39:17;;;;;;;11.40;5.07;;;;;;;1.30;100.00;100836.56;837740;23;1275;-86
2022/01/07 01:39:40;;;;;;;12.02;5.38;;;;;;;1.29;100.00;100808.19;836197;23;825;-86
2022/01/07 01:40:00;;;;;;;11.50;5.28;;;;;;;1.23;100.00;100824.25;824511;23;4210;-85
2022/01/07 01:40:26;;;;;;;12.43;5.20;;;;;;;1.30;100.00;100826.25;833967;23;1248;-85
2022/01/07 01:40:47;;;;;;;12.93;5.43;;;;;;;1.39;100.00;100835.13;834799;23;1180;-85
2022/01/07 01:41:08;;;;;;;12.57;5.63;;;;;;;1.50;99.27;100841.53;835432;23;828;-85
2022/01/07 01:41:29;;;;;;;11.52;5.25;;;;;;;1.48;99.28;100820.88;832816;23;1395;-85
2022/01/07 01:41:50;;;;;;;13.60;5.22;;;;;;;1.44;99.99;100812.97;825997;23;1470;-86
2022/01/07 01:42:10;;;;;;;11.75;5.43;;;;;;;1.41;99.88;100818.00;830859;23;1154;-86
2022/01/07 01:42:34;;;;;;;11.90;5.30;;;;;;;1.49;99.31;100806.28;831002;23;1207;-85
2022/01/07 01:42:57;;;;;;;12.63;5.28;;;;;;;1.51;99.58;100838.16;829574;23;1249;-86
2022/01/07 01:43:20;;;;;;;11.95;5.00;;;;;;;1.51;100.00;100809.81;833782;23;4259;-84
2022/01/07 01:43:41;;;;;;;12.13;5.32;;;;;;;1.43;99.90;100831.84;829692;23;1169;-85
2022/01/07 01:44:01;;;;;;;12.13;5.75;;;;;;;1.34;100.00;100797.22;826338;23;1327;-87